createdAt,value
2023-03-06T00:02:52.151Z,98805.91
2023-03-06T00:06:17.799Z,98795.84
2023-03-06T00:09:41.249Z,98806.78
2023-03-06T00:13:08.117Z,98794.91
2023-03-06T00:16:32.129Z,98803.31
2023-03-06T00:19:57.622Z,98806.66
2023-03-06T00:23:23.648Z,98803.22
2023-03-06T00:26:46.815Z,98799.78
2023-03-06T00:30:13.563Z,98788.75
2023-03-06T00:33:37.594Z,98783.47
2023-03-06T00:37:00.816Z,98778.38
2023-03-06T00:40:25.927Z,98773.28
2023-03-06T00:43:48.781Z,98775.88
2023-03-06T00:47:13.074Z,98771.75
2023-03-06T00:50:37.402Z,98779.44
2023-03-06T00:54:00.837Z,98771.91
2023-03-06T00:57:25.123Z,98777.16
2023-03-06T01:00:49.224Z,98767.88
2023-03-06T01:04:12.684Z,98765.41
2023-03-06T01:07:37.791Z,98762.13
2023-03-06T01:11:01.978Z,98757.13
2023-03-06T01:14:27.191Z,98764.03
2023-03-06T01:17:54.143Z,98764.06
2023-03-06T01:21:16.896Z,98764.13
2023-03-06T01:24:41.264Z,98767.53
2023-03-06T01:28:04.876Z,98757.34
2023-03-06T01:31:30.735Z,98753.94
2023-03-06T01:34:57.267Z,98756.38
2023-03-06T01:38:22.144Z,98764.81
2023-03-06T01:41:46.129Z,98754.56
2023-03-06T01:45:49.437Z,98757.06
2023-03-06T01:49:23.872Z,98757.91
2023-03-06T01:52:51.744Z,98753.53
2023-03-06T01:56:17.878Z,98759.44
2023-03-06T01:59:45.853Z,98754.22
2023-03-06T02:03:13.324Z,98749.81
2023-03-06T02:06:43.250Z,98742.16
2023-03-06T02:10:09.172Z,98738.81
2023-03-06T02:13:32.988Z,98734.41
2023-03-06T02:16:57.897Z,98738.56
2023-03-06T02:20:28.807Z,98736.03
2023-03-06T02:24:04.977Z,98735.97
2023-03-06T02:27:30.805Z,98736.00
2023-03-06T02:30:56.994Z,98730.03
2023-03-06T02:34:51.058Z,98728.31
2023-03-06T02:38:19.826Z,98729.09
2023-03-06T02:41:43.091Z,98731.63
2023-03-06T02:45:12.074Z,98718.94
2023-03-06T02:48:35.971Z,98726.50
2023-03-06T02:52:00.154Z,98713.72
2023-03-06T02:55:24.038Z,98717.13
2023-03-06T02:58:47.103Z,98711.13
2023-03-06T03:02:13.027Z,98707.78
2023-03-06T03:05:38.764Z,98701.91
2023-03-06T03:09:02.223Z,98709.63
2023-03-06T03:12:25.804Z,98714.84
2023-03-06T03:16:01.081Z,98698.94
2023-03-06T03:19:26.092Z,98671.19
2023-03-06T03:22:55.478Z,98688.88
2023-03-06T03:26:21.910Z,98710.09
2023-03-06T03:29:44.869Z,98699.00
2023-03-06T03:33:08.649Z,98700.66
2023-03-06T03:36:33.969Z,98706.56
2023-03-06T03:39:57.117Z,98704.06
2023-03-06T03:43:21.122Z,98672.81
2023-03-06T03:46:45.245Z,98701.28
2023-03-06T03:50:10.725Z,98693.53
2023-03-06T03:53:36.244Z,98689.19
2023-03-06T03:56:59.912Z,98672.22
2023-03-06T04:00:24.126Z,98684.75
2023-03-06T04:03:47.779Z,98694.78
2023-03-06T04:07:11.968Z,98672.72
2023-03-06T04:10:37.694Z,98679.38
2023-03-06T04:14:01.378Z,98684.41
2023-03-06T04:17:25.356Z,98665.84
2023-03-06T04:20:50.794Z,98677.59
2023-03-06T04:24:15.070Z,98672.47
2023-03-06T04:27:41.200Z,98670.75
2023-03-06T04:31:04.544Z,98663.97
2023-03-06T04:34:28.763Z,98664.81
2023-03-06T04:37:52.178Z,98667.38
2023-03-06T04:41:15.165Z,98670.00
2023-03-06T04:44:41.021Z,98675.97
2023-03-06T04:48:06.068Z,98662.56
2023-03-06T04:51:30.169Z,98682.09
2023-03-06T04:54:54.430Z,98677.88
2023-03-06T04:58:17.976Z,98677.06
2023-03-06T05:01:43.093Z,98670.31
2023-03-06T05:05:07.885Z,98671.94
2023-03-06T05:08:31.061Z,98672.78
2023-03-06T05:11:54.114Z,98669.44
2023-03-06T05:15:19.325Z,98644.03
2023-03-06T05:18:44.946Z,98665.88
2023-03-06T05:22:08.727Z,98669.22
2023-03-06T05:25:32.717Z,98670.88
2023-03-06T05:28:56.810Z,98669.22
2023-03-06T05:32:20.833Z,98680.22
2023-03-06T05:35:51.036Z,98667.66
2023-03-06T05:39:15.496Z,98666.66
2023-03-06T05:42:39.497Z,98665.78
2023-03-06T05:46:05.150Z,98673.31
2023-03-06T05:49:29.818Z,98670.75
2023-03-06T05:52:56.187Z,98668.19
2023-03-06T05:56:20.448Z,98678.38
2023-03-06T05:59:46.337Z,98679.13
2023-03-06T06:03:10.707Z,98679.91
2023-03-06T06:06:35.158Z,98678.84
2023-03-06T06:10:03.537Z,98675.25
2023-03-06T06:13:28.964Z,98668.22
2023-03-06T06:16:53.355Z,98674.88
2023-03-06T06:20:18.512Z,98665.41
2023-03-06T06:23:43.084Z,98675.47
2023-03-06T06:27:09.308Z,98661.00
2023-03-06T06:30:34.315Z,98661.75
2023-03-06T06:33:58.090Z,98674.06
2023-03-06T06:37:22.210Z,98668.81
2023-03-06T06:41:04.244Z,98668.56
2023-03-06T06:44:32.551Z,98675.88
2023-03-06T06:47:55.657Z,98667.78
2023-03-06T06:51:19.106Z,98679.41
2023-03-06T06:54:42.273Z,98681.09
2023-03-06T06:58:06.271Z,98670.28
2023-03-06T07:01:32.109Z,98674.56
2023-03-06T07:05:04.064Z,98679.66
2023-03-06T07:08:27.113Z,98671.97
2023-03-06T07:11:51.296Z,98675.28
2023-03-06T07:15:16.292Z,98669.81
2023-03-06T07:18:41.938Z,98676.94
2023-03-06T07:22:06.022Z,98670.25
2023-03-06T07:25:30.312Z,98662.50
2023-03-06T07:28:55.278Z,98660.84
2023-03-06T07:32:18.936Z,98659.09
2023-03-06T07:35:44.032Z,98659.22
2023-03-06T07:39:07.791Z,98663.94
2023-03-06T07:42:31.154Z,98658.44
2023-03-06T07:45:59.441Z,98665.19
2023-03-06T07:49:22.917Z,98660.81
2023-03-06T07:52:48.327Z,98649.78
2023-03-06T07:56:13.333Z,98653.00
2023-03-06T07:59:37.437Z,98658.19
2023-03-06T08:03:01.293Z,98663.47
2023-03-06T08:06:27.055Z,98654.31
2023-03-06T08:09:53.066Z,98659.44
2023-03-06T08:13:17.146Z,98664.75
2023-03-06T08:16:41.227Z,98667.03
2023-03-06T08:20:05.323Z,98673.44
2023-03-06T08:23:28.363Z,98666.59
2023-03-06T08:26:54.312Z,98674.00
2023-03-06T08:30:18.498Z,98677.34
2023-03-06T08:33:44.019Z,98676.47
2023-03-06T08:37:07.103Z,98677.25
2023-03-06T08:40:30.961Z,98680.91
2023-03-06T08:43:56.173Z,98687.16
2023-03-06T08:47:20.259Z,98678.94
2023-03-06T08:50:44.859Z,98684.25
2023-03-06T08:54:08.344Z,98690.53
2023-03-06T08:57:32.388Z,98686.59
2023-03-06T09:00:57.377Z,98691.84
2023-03-06T09:04:21.625Z,98689.97
2023-03-06T09:07:45.401Z,98687.63
2023-03-06T09:11:11.395Z,98674.56
2023-03-06T09:14:35.303Z,98687.69
2023-03-06T09:18:00.226Z,98692.97
2023-03-06T09:21:25.643Z,98694.91
2023-03-06T09:24:49.409Z,98698.56
2023-03-06T09:28:14.625Z,98689.22
2023-03-06T09:31:37.994Z,98689.34
2023-03-06T09:35:04.421Z,98687.09
2023-03-06T09:38:29.655Z,98677.41
2023-03-06T09:41:54.377Z,98689.13
2023-03-06T09:45:21.195Z,98681.44
2023-03-06T09:48:54.293Z,98688.50
2023-03-06T09:52:40.192Z,98698.00
2023-03-06T09:56:08.404Z,98698.06
2023-03-06T09:59:34.200Z,98696.94
2023-03-06T10:03:06.642Z,98703.16
2023-03-06T10:06:33.331Z,98710.13
2023-03-06T10:10:02.537Z,98704.97
2023-03-06T10:13:30.205Z,98701.50
2023-03-06T10:16:53.369Z,98710.13
2023-03-06T10:20:24.320Z,98704.06
2023-03-06T10:23:56.303Z,98703.81
2023-03-06T10:27:32.168Z,98704.56
2023-03-06T10:31:04.531Z,98704.44
2023-03-06T10:34:35.072Z,98708.19
2023-03-06T10:38:07.476Z,98703.72
2023-03-06T10:41:32.666Z,98703.59
2023-03-06T10:45:10.280Z,98712.16
2023-03-06T10:48:36.519Z,98709.09
2023-03-06T10:52:03.297Z,98707.59
2023-03-06T10:55:31.651Z,98705.13
2023-03-06T10:59:08.516Z,98710.38
2023-03-06T11:02:37.324Z,98714.13
2023-03-06T11:06:12.667Z,98706.97
2023-03-06T11:09:35.646Z,98700.19
2023-03-06T11:13:01.257Z,98713.09
2023-03-06T11:16:31.021Z,98715.22
2023-03-06T11:20:18.994Z,98712.75
2023-03-06T11:23:46.910Z,98717.56
2023-03-06T11:27:25.228Z,98707.03
2023-03-06T11:30:52.275Z,98706.41
2023-03-06T11:34:23.529Z,98710.28
2023-03-06T11:37:55.392Z,98712.16
2023-03-06T11:41:26.538Z,98710.41
2023-03-06T11:45:00.352Z,98712.91
2023-03-06T11:48:31.114Z,98712.22
2023-03-06T11:51:57.536Z,98703.09
2023-03-06T11:55:38.013Z,98707.53
2023-03-06T11:59:28.730Z,98700.72
2023-03-06T12:03:24.566Z,98703.75
2023-03-06T12:06:58.565Z,98698.94
2023-03-06T12:10:32.404Z,98706.75
2023-03-06T12:14:23.720Z,98696.19
2023-03-06T12:18:07.674Z,98697.81
2023-03-06T12:21:42.718Z,98712.97
2023-03-06T12:25:38.340Z,98708.25
2023-03-06T12:29:20.679Z,98695.03
2023-03-06T12:32:52.769Z,98708.91
2023-03-06T12:36:29.923Z,98714.56
2023-03-06T12:40:16.749Z,98712.81
2023-03-06T12:44:05.106Z,98714.50
2023-03-06T12:47:31.440Z,98716.66
2023-03-06T12:50:55.611Z,98713.00
2023-03-06T12:54:24.322Z,98707.91
2023-03-06T12:57:49.330Z,98707.94
2023-03-06T13:01:20.622Z,98718.84
2023-03-06T13:05:03.312Z,98715.81
2023-03-06T13:08:59.139Z,98713.13
2023-03-06T13:12:40.641Z,98715.41
2023-03-06T13:16:14.561Z,98702.72
2023-03-06T13:19:38.536Z,98713.38
2023-03-06T13:23:44.607Z,98716.66
2023-03-06T13:27:11.622Z,98700.94
2023-03-06T13:30:47.572Z,98720.09
2023-03-06T13:34:37.833Z,98721.56
2023-03-06T13:38:03.339Z,98724.38
2023-03-06T13:41:45.659Z,98706.94
2023-03-06T13:45:11.896Z,98724.41
2023-03-06T13:48:44.774Z,98719.16
2023-03-06T13:52:12.559Z,98719.16
2023-03-06T13:55:46.580Z,98709.06
2023-03-06T13:59:35.134Z,98720.97
2023-03-06T14:03:31.894Z,98719.56
2023-03-06T14:07:07.250Z,98718.88
2023-03-06T14:10:35.824Z,98727.03
2023-03-06T14:14:00.225Z,98721.50
2023-03-06T14:17:30.459Z,98720.53
2023-03-06T14:20:59.456Z,98726.78
2023-03-06T14:24:35.527Z,98722.31
2023-03-06T14:28:09.128Z,98722.41
2023-03-06T14:31:46.035Z,98721.31
2023-03-06T14:40:11.404Z,98725.81
2023-03-06T14:51:20.510Z,98732.47
2023-03-06T14:54:47.318Z,98733.50
2023-03-06T14:58:16.524Z,98727.00
2023-03-06T15:01:43.554Z,98732.13
2023-03-06T15:05:16.026Z,98728.50
2023-03-06T15:08:42.718Z,98719.00
2023-03-06T15:12:09.662Z,98724.59
2023-03-06T15:15:35.599Z,98730.06
2023-03-06T15:19:01.325Z,98728.69
2023-03-06T15:22:31.744Z,98715.00
2023-03-06T15:26:00.751Z,98734.88
2023-03-06T15:29:26.176Z,98735.38
2023-03-06T15:32:52.608Z,98740.78
2023-03-06T15:36:29.905Z,98737.72
2023-03-06T15:40:09.656Z,98743.88
2023-03-06T15:43:38.359Z,98745.28
2023-03-06T15:47:08.680Z,98735.50
2023-03-06T15:50:34.636Z,98741.84
2023-03-06T15:54:11.994Z,98753.09
2023-03-06T15:57:35.606Z,98755.13
2023-03-06T16:01:00.837Z,98758.03
2023-03-06T16:04:24.996Z,98761.78
2023-03-06T16:07:50.939Z,98757.16
2023-03-06T16:11:18.600Z,98764.31
2023-03-06T16:14:42.473Z,98758.59
2023-03-06T16:22:55.648Z,98758.34
2023-03-06T16:29:49.848Z,98749.59
2023-03-06T16:33:13.631Z,98761.59
2023-03-06T16:36:37.611Z,98760.16
2023-03-06T16:40:03.113Z,98759.59
2023-03-06T16:43:27.216Z,98774.22
2023-03-06T16:46:52.746Z,98777.06
2023-03-06T16:50:25.642Z,98783.06
2023-03-06T16:53:49.517Z,98781.63
2023-03-06T16:57:16.368Z,98780.78
2023-03-06T17:00:39.744Z,98778.34
2023-03-06T17:04:04.838Z,98788.66
2023-03-06T17:07:29.750Z,98765.16
2023-03-06T17:10:54.261Z,98787.19
2023-03-06T17:14:19.564Z,98792.44
2023-03-06T17:17:42.726Z,98798.59
2023-03-06T17:21:06.508Z,98778.44
2023-03-06T17:24:31.001Z,98781.72
2023-03-06T17:27:54.864Z,98787.78
2023-03-06T17:31:21.750Z,98791.94
2023-03-06T17:34:46.028Z,98793.47
2023-03-06T17:38:10.521Z,98780.06
2023-03-06T17:41:35.094Z,98779.16
2023-03-06T17:44:58.874Z,98784.28
2023-03-06T17:48:24.895Z,98792.63
2023-03-06T17:51:49.218Z,98797.63
2023-03-06T17:55:14.021Z,98800.19
2023-03-06T17:58:38.007Z,98796.72
2023-03-06T18:02:02.224Z,98789.13
2023-03-06T18:05:27.885Z,98790.91
2023-03-06T18:08:52.940Z,98795.84
2023-03-06T18:12:16.714Z,98790.84
2023-03-06T18:15:42.126Z,98798.44
2023-03-06T18:19:08.922Z,98795.13
2023-03-06T18:22:34.505Z,98798.66
2023-03-06T18:26:09.938Z,98785.16
2023-03-06T18:29:33.421Z,98790.13
2023-03-06T18:32:59.192Z,98793.59
2023-03-06T18:36:25.377Z,98801.19
2023-03-06T18:39:51.414Z,98786.19
2023-03-06T18:43:15.503Z,98808.22
2023-03-06T18:46:40.612Z,98808.38
2023-03-06T18:50:04.599Z,98804.31
2023-03-06T18:53:28.372Z,98814.59
2023-03-06T18:56:53.072Z,98801.16
2023-03-06T19:00:17.776Z,98814.81
2023-03-06T19:03:43.642Z,98805.66
2023-03-06T19:07:07.688Z,98819.25
2023-03-06T19:10:32.086Z,98809.16
2023-03-06T19:13:57.299Z,98817.00
2023-03-06T19:17:20.955Z,98808.63
2023-03-06T19:20:44.959Z,98815.44
2023-03-06T19:24:14.685Z,98813.84
2023-03-06T19:27:39.968Z,98828.28
2023-03-06T19:31:10.336Z,98832.63
2023-03-06T19:34:33.802Z,98831.84
2023-03-06T19:37:57.791Z,98820.13
2023-03-06T19:41:21.786Z,98843.84
2023-03-06T19:44:45.757Z,98832.94
2023-03-06T19:48:12.812Z,98854.06
2023-03-06T19:51:36.892Z,98845.63
2023-03-06T19:55:00.161Z,98851.56
2023-03-06T19:58:23.640Z,98823.81
2023-03-06T20:01:47.577Z,98851.66
2023-03-06T20:05:13.142Z,98857.56
2023-03-06T20:08:37.004Z,98866.03
2023-03-06T20:12:00.191Z,98863.50
2023-03-06T20:15:23.958Z,98840.69
2023-03-06T20:18:48.142Z,98861.81
2023-03-06T20:22:13.870Z,98859.34
2023-03-06T20:25:38.671Z,98867.81
2023-03-06T20:29:02.255Z,98870.44
2023-03-06T20:32:25.940Z,98867.16
2023-03-06T20:35:51.029Z,98862.19
2023-03-06T20:39:17.983Z,98866.44
2023-03-06T20:42:40.941Z,98882.59
2023-03-06T20:46:06.717Z,98877.56
2023-03-06T20:49:30.759Z,98875.97
2023-03-06T20:52:56.176Z,98891.22
2023-03-06T20:56:22.208Z,98898.94
2023-03-06T20:59:45.781Z,98895.66
2023-03-06T21:03:09.356Z,98905.91
2023-03-06T21:06:32.832Z,98900.06
2023-03-06T21:09:56.710Z,98906.03
2023-03-06T21:13:21.716Z,98881.53
2023-03-06T21:16:46.082Z,98889.22
2023-03-06T21:20:11.058Z,98889.19
2023-03-06T21:23:35.206Z,98892.66
2023-03-06T21:26:59.294Z,98889.34
2023-03-06T21:30:25.089Z,98885.25
2023-03-06T21:33:50.237Z,98889.56
2023-03-06T21:37:13.607Z,98902.31
2023-03-06T21:40:38.076Z,98910.88
2023-03-06T21:44:04.238Z,98903.34
2023-03-06T21:47:32.081Z,98913.53
2023-03-06T21:50:55.886Z,98906.75
2023-03-06T21:54:19.087Z,98922.88
2023-03-06T21:57:42.087Z,98919.56
2023-03-06T22:01:11.022Z,98925.56
2023-03-06T22:04:37.039Z,98919.75
2023-03-06T22:08:01.846Z,98930.81
2023-03-06T22:11:27.400Z,98915.63
2023-03-06T22:14:50.326Z,98930.91
2023-03-06T22:18:16.467Z,98927.56
2023-03-06T22:21:41.876Z,98919.16
2023-03-06T22:25:06.715Z,98936.19
2023-03-06T22:28:30.252Z,98920.16
2023-03-06T22:31:54.182Z,98937.97
2023-03-06T22:35:19.111Z,98941.41
2023-03-06T22:38:45.994Z,98949.91
2023-03-06T22:42:10.285Z,98949.94
2023-03-06T22:45:37.563Z,98949.97
2023-03-06T22:49:02.049Z,98949.97
2023-03-06T22:52:25.713Z,98947.47
2023-03-06T22:55:51.643Z,98928.03
2023-03-06T22:59:16.855Z,98945.84
2023-03-06T23:02:45.553Z,98942.44
2023-03-06T23:06:12.111Z,98952.63
2023-03-06T23:09:36.285Z,98945.88
2023-03-06T23:13:01.918Z,98959.44
2023-03-06T23:16:26.153Z,98956.03
2023-03-06T23:19:54.386Z,98951.81
2023-03-06T23:23:18.266Z,98966.19
2023-03-06T23:26:42.349Z,98947.59
2023-03-06T23:30:09.519Z,98970.44
2023-03-06T23:33:33.083Z,98958.63
2023-03-06T23:36:56.762Z,98972.16
2023-03-06T23:40:20.949Z,98974.69
2023-03-06T23:43:46.983Z,98977.22
2023-03-06T23:47:12.179Z,98952.66
2023-03-06T23:50:37.817Z,98974.66
2023-03-06T23:54:02.419Z,98963.66
2023-03-06T23:57:26.025Z,98955.19
